CYMO

Moosonee Airport

Moosonee, Ontario, Canada
METAR CYMO 152200Z AUTO 08010KT 9SM CLR 15/08 A3001 RMK SLP165
Observed Flight Rules
Aug-15 @ 22:00 UTC (27 minutes ago) Visual Flight Rules
Wind Visibility Clouds
80° at 10 knots 9 miles
  • Clear skies
Temperatures Readings
Current 15°C / 59°F
Dewpoint 8°C / 46°F
Humidity 63%
Altimeter 30.01" Hg
Pressure 1016.5 hPa
Elevation 10
METAR CYMO 152200Z AUTO 08010KT 9SM CLR 15/08 A3001 RMK SLP165
Observed Flight Rules
Aug-15 @ 22:00 UTC
(27 minutes ago)
VFR
Wind Visibility
80° at 10 knots 9 miles
Clouds
  • Clear skies
Temperature Dewpoint
15°C / 59°F 8°C / 46°F
Humidity Altimeter Pressure
63% 30.01" Hg 1016.5 hPa